Time;durP1;ratioP1;P1;durP2;ratioP2;P2;SDS_P1;SDS_P2;PMS_P1;PMS_P2;Temp;Humidity;BMP_temperature;BMP_pressure;BME280_temperature;BME280_humidity;BME280_pressure;Samples;Min_cycle;Max_cycle;Signal;HPM_P1;HPM_P2
2022/04/16 00:00:22;;;;;;;6.90;3.43;;;;;;;12.43;47.23;101187.69;2569060;23;20166;-62
2022/04/16 00:01:22;;;;;;;6.43;3.80;;;;;;;12.03;47.13;101124.28;2569499;23;20863;-62
2022/04/16 00:02:23;;;;;;;6.23;3.53;;;;;;;12.47;47.51;101188.41;2569611;23;20772;-62
2022/04/16 00:03:24;;;;;;;7.03;3.77;;;;;;;12.56;48.32;101201.72;2569298;23;20158;-62
2022/04/16 00:04:25;;;;;;;7.00;3.70;;;;;;;12.59;48.58;101198.84;2569720;23;20250;-62
2022/04/16 00:05:25;;;;;;;7.03;3.90;;;;;;;12.60;48.88;101199.63;2569400;23;20371;-62
2022/04/16 00:06:26;;;;;;;9.17;4.00;;;;;;;12.58;48.86;101202.06;2569143;23;20633;-62
2022/04/16 00:07:26;;;;;;;11.00;4.10;;;;;;;12.57;49.36;101201.28;2555890;23;20638;-62
2022/04/16 00:08:28;;;;;;;8.53;3.77;;;;;;;12.47;49.27;101187.63;2556501;23;20164;-62
2022/04/16 00:09:29;;;;;;;6.03;3.60;;;;;;;12.58;49.03;101204.84;2569801;23;20151;-62
2022/04/16 00:10:29;;;;;;;8.27;4.17;;;;;;;12.53;49.03;101197.00;2569265;23;20383;-62
2022/04/16 00:11:30;;;;;;;7.03;4.40;;;;;;;12.56;48.96;101205.25;2569519;23;20185;-62
2022/04/16 00:12:31;;;;;;;10.63;4.20;;;;;;;12.52;48.69;101189.88;2569714;23;20202;-62
2022/04/16 00:13:32;;;;;;;5.53;3.70;;;;;;;12.57;49.13;101206.84;2569399;23;20499;-62
2022/04/16 00:14:36;;;;;;;7.87;3.97;;;;;;;12.48;48.92;101192.75;2569433;23;20197;-62
2022/04/16 00:15:38;;;;;;;8.77;4.10;;;;;;;12.19;48.98;101144.56;2569195;23;20422;-62
2022/04/16 00:16:38;;;;;;;8.63;4.13;;;;;;;12.20;49.21;101151.69;2555587;23;20470;-62
2022/04/16 00:17:39;;;;;;;6.37;3.77;;;;;;;12.54;49.12;101204.91;2556070;23;20379;-62
2022/04/16 00:18:40;;;;;;;9.63;4.07;;;;;;;12.52;49.29;101201.81;2569446;23;20155;-62
2022/04/16 00:19:41;;;;;;;5.87;3.97;;;;;;;12.52;49.12;101201.81;2569872;23;20156;-62
2022/04/16 00:20:42;;;;;;;7.23;4.50;;;;;;;12.42;48.99;101186.13;2569282;23;20152;-62
2022/04/16 00:21:43;;;;;;;11.23;4.13;;;;;;;12.53;49.16;101197.81;2569609;23;20152;-62
2022/04/16 00:22:43;;;;;;;7.87;4.13;;;;;;;12.56;49.48;101202.47;2569497;23;20375;-62
2022/04/16 00:23:44;;;;;;;9.90;3.83;;;;;;;12.34;49.35;101167.28;2569758;23;20154;-62
2022/04/16 00:24:50;;;;;;;6.30;4.13;;;;;;;12.15;49.37;101131.97;2570169;23;20206;-62
2022/04/16 00:25:53;;;;;;;7.40;4.30;;;;;;;12.55;49.88;101200.16;2570140;23;20540;-62
2022/04/16 00:26:54;;;;;;;8.43;4.60;;;;;;;12.47;50.10;101184.84;2569651;23;20866;-62
2022/04/16 00:27:55;;;;;;;5.73;3.90;;;;;;;12.54;51.18;101202.13;2570182;23;20759;-62
2022/04/16 00:28:58;;;;;;;9.23;4.70;;;;;;;12.55;53.87;101200.16;2570411;23;20158;-62
2022/04/16 00:29:59;;;;;;;7.20;4.20;;;;;;;12.49;54.32;101191.53;2570307;23;20370;-62
2022/04/16 00:31:00;;;;;;;6.97;4.53;;;;;;;12.57;54.58;101204.06;2570178;23;20411;-62
2022/04/16 00:32:00;;;;;;;8.10;4.37;;;;;;;12.51;54.06;101189.09;2570598;23;20371;-62
2022/04/16 00:33:02;;;;;;;10.27;4.50;;;;;;;12.58;54.15;101188.94;2570312;23;20156;-62
2022/04/16 00:34:02;;;;;;;8.63;4.43;;;;;;;12.59;54.42;101201.63;2570116;23;20155;-62
2022/04/16 00:35:03;;;;;;;10.20;4.40;;;;;;;12.60;54.50;101197.63;2570239;23;20458;-62
2022/04/16 00:36:04;;;;;;;8.07;5.07;;;;;;;12.62;54.48;101199.97;2569968;23;20202;-62
2022/04/16 00:37:04;;;;;;;7.40;4.57;;;;;;;12.62;54.71;101194.41;2570021;23;20198;-62
2022/04/16 00:38:05;;;;;;;5.90;4.37;;;;;;;12.63;55.05;101199.56;2569821;23;20238;-62
2022/04/16 00:39:05;;;;;;;7.43;4.63;;;;;;;12.66;54.88;101204.22;2570325;23;20155;-62
2022/04/16 00:40:06;;;;;;;6.13;4.57;;;;;;;12.66;55.12;101207.00;2570028;23;20158;-62
2022/04/16 00:41:07;;;;;;;6.97;4.23;;;;;;;12.68;54.87;101195.47;2570207;23;20650;-62
2022/04/16 00:42:07;;;;;;;6.33;4.60;;;;;;;12.68;54.70;101198.25;2570405;23;20722;-62
2022/04/16 00:43:19;;;;;;;9.37;4.50;;;;;;;12.15;54.62;101118.09;2570426;23;20151;-62
2022/04/16 00:44:20;;;;;;;8.83;4.40;;;;;;;12.62;54.25;101195.22;2570054;23;20222;-62
2022/04/16 00:45:21;;;;;;;9.90;4.70;;;;;;;12.69;53.99;101202.59;2556313;23;20497;-62
2022/04/16 00:46:22;;;;;;;8.57;4.50;;;;;;;12.69;54.22;101202.59;2557009;23;20377;-62
2022/04/16 00:47:23;;;;;;;8.87;4.80;;;;;;;12.61;54.46;101201.97;2569337;23;20379;-62
2022/04/16 00:48:23;;;;;;;7.97;4.60;;;;;;;12.45;54.84;101168.59;2569771;23;20155;-62
2022/04/16 00:49:24;;;;;;;6.63;4.57;;;;;;;12.67;55.03;101205.81;2570443;23;20158;-62
2022/04/16 00:50:26;;;;;;;7.13;4.60;;;;;;;12.67;54.79;101205.03;2569961;23;20163;-62
2022/04/16 00:51:28;;;;;;;8.50;4.97;;;;;;;12.05;52.73;101116.31;2570190;23;20155;-62
2022/04/16 00:52:29;;;;;;;8.87;5.10;;;;;;;12.68;53.77;101201.81;2570695;23;20869;-62
2022/04/16 00:53:29;;;;;;;11.67;5.00;;;;;;;12.67;54.25;101205.03;2570571;23;20706;-62
2022/04/16 00:54:30;;;;;;;10.20;4.87;;;;;;;12.68;54.39;101201.81;2570093;23;20248;-62
2022/04/16 00:55:33;;;;;;;10.07;4.77;;;;;;;12.66;54.62;101206.25;2569760;23;20153;-62
2022/04/16 00:56:33;;;;;;;9.67;4.90;;;;;;;12.65;54.28;101208.25;2569715;23;20203;-62
2022/04/16 00:57:34;;;;;;;13.17;4.80;;;;;;;12.08;54.24;101110.69;2569795;23;20403;-62
2022/04/16 00:58:35;;;;;;;11.87;4.73;;;;;;;12.66;54.25;101209.03;2570143;23;20206;-62
2022/04/16 00:59:35;;;;;;;10.93;5.23;;;;;;;12.66;54.39;101214.59;2570403;23;20378;-62
2022/04/16 01:00:36;;;;;;;8.97;5.03;;;;;;;12.66;54.14;101215.34;2569855;23;20201;-62
2022/04/16 01:01:36;;;;;;;11.57;4.87;;;;;;;12.25;53.82;101150.41;2570218;23;20602;-62
2022/04/16 01:02:38;;;;;;;12.07;4.93;;;;;;;12.61;53.99;101206.75;2570152;23;20237;-62
2022/04/16 01:03:42;;;;;;;8.53;4.80;;;;;;;12.70;53.43;101221.63;2570196;23;20210;-62
2022/04/16 01:04:43;;;;;;;9.50;4.90;;;;;;;12.75;54.25;101220.34;2569730;23;20466;-62
2022/04/16 01:05:44;;;;;;;10.40;5.43;;;;;;;12.76;54.48;101221.91;2569817;23;20442;-62
2022/04/16 01:06:48;;;;;;;7.33;5.20;;;;;;;12.76;52.96;101222.69;2569459;23;20168;-62
2022/04/16 01:07:53;;;;;;;13.37;5.17;;;;;;;12.58;52.02;101202.84;2569848;23;20152;-62
2022/04/16 01:08:54;;;;;;;12.17;5.13;;;;;;;12.62;53.75;101199.97;2570217;23;20767;-62
2022/04/16 01:09:54;;;;;;;11.93;5.07;;;;;;;12.82;53.46;101223.72;2570200;23;20378;-62
2022/04/16 01:10:55;;;;;;;10.37;5.27;;;;;;;12.85;53.02;101225.66;2570226;23;20152;-62
2022/04/16 01:11:56;;;;;;;10.97;5.07;;;;;;;12.87;52.98;101228.75;2556965;23;20589;-62
2022/04/16 01:12:59;;;;;;;13.93;5.63;;;;;;;12.88;52.32;101219.22;2557009;23;20504;-62
2022/04/16 01:14:01;;;;;;;14.13;5.77;;;;;;;12.92;53.50;101228.25;2570318;23;20235;-62
2022/04/16 01:15:02;;;;;;;11.43;5.43;;;;;;;12.74;53.06;101199.28;2569780;23;20406;-62
2022/04/16 01:16:05;;;;;;;18.00;6.33;;;;;;;12.88;53.72;101219.22;2570024;23;20380;-62
2022/04/16 01:17:05;;;;;;;11.07;4.90;;;;;;;12.92;51.67;101225.47;2569670;23;20226;-62
2022/04/16 01:18:07;;;;;;;19.57;6.37;;;;;;;12.98;52.77;101231.34;2569676;23;20394;-62
2022/04/16 01:19:10;;;;;;;18.67;6.23;;;;;;;12.99;53.13;101233.69;2570248;23;20214;-62
2022/04/16 01:20:10;;;;;;;22.33;6.67;;;;;;;12.99;53.31;101235.69;2569927;23;20385;-62
2022/04/16 01:21:11;;;;;;;13.80;5.77;;;;;;;13.01;53.33;101236.06;2570137;23;20879;-62
2022/04/16 01:22:13;;;;;;;12.90;5.70;;;;;;;13.03;53.42;101236.38;2570371;23;20159;-62
2022/04/16 01:23:15;;;;;;;13.23;5.93;;;;;;;13.03;52.86;101237.19;2570402;23;20152;-62
2022/04/16 01:24:16;;;;;;;7.00;4.30;;;;;;;13.05;51.16;101239.50;2570180;23;20374;-62
2022/04/16 01:25:18;;;;;;;6.47;3.90;;;;;;;12.71;47.82;101181.47;2569249;23;20554;-62
2022/04/16 01:26:20;;;;;;;10.47;4.30;;;;;;;13.10;47.06;101242.56;2570135;23;20159;-62
2022/04/16 01:27:21;;;;;;;15.20;4.37;;;;;;;13.16;44.66;101237.28;2568996;23;20457;-62
2022/04/16 01:28:22;;;;;;;6.03;3.87;;;;;;;13.21;44.61;101231.19;2570178;23;20379;-62
2022/04/16 01:29:23;;;;;;;9.47;4.50;;;;;;;13.28;45.24;101239.34;2570328;23;20389;-62
2022/04/16 01:30:23;;;;;;;8.63;4.37;;;;;;;13.18;46.98;101199.44;2569864;23;20587;-62
2022/04/16 01:31:24;;;;;;;9.57;3.90;;;;;;;13.40;46.08;101228.28;2570113;23;20546;-62
2022/04/16 01:32:25;;;;;;;10.50;4.70;;;;;;;13.41;47.20;101223.47;2556988;23;20165;-62
2022/04/16 01:33:25;;;;;;;7.33;3.90;;;;;;;13.54;44.88;101227.13;2557195;23;20152;-62
2022/04/16 01:34:26;;;;;;;8.03;3.83;;;;;;;13.19;44.43;101164.03;2569978;23;20240;-62
2022/04/16 01:35:26;;;;;;;8.80;4.23;;;;;;;13.67;45.68;101228.75;2568899;23;20564;-62
2022/04/16 01:36:31;;;;;;;7.67;4.00;;;;;;;13.75;45.19;101227.34;2569604;23;20175;-62
2022/04/16 01:37:34;;;;;;;8.87;4.03;;;;;;;13.80;43.47;101221.25;2569504;23;20148;-62
2022/04/16 01:38:34;;;;;;;11.67;4.30;;;;;;;13.86;46.27;101222.25;2569983;23;20380;-62
2022/04/16 01:39:35;;;;;;;9.67;4.80;;;;;;;13.94;47.57;101223.63;2570346;23;20381;-62
2022/04/16 01:40:36;;;;;;;7.40;4.10;;;;;;;13.15;45.36;101104.88;2569843;23;20153;-62
2022/04/16 01:41:36;;;;;;;8.20;4.53;;;;;;;14.03;46.94;101234.16;2570053;23;20477;-62
2022/04/16 01:42:38;;;;;;;10.23;4.30;;;;;;;14.07;46.80;101226.44;2570126;23;20209;-62
2022/04/16 01:43:38;;;;;;;9.03;4.10;;;;;;;14.11;44.50;101227.13;2570372;23;20148;-63
2022/04/16 01:44:39;;;;;;;8.83;4.30;;;;;;;14.15;44.62;101223.00;2569959;23;20441;-62
2022/04/16 01:45:39;;;;;;;11.33;4.93;;;;;;;14.22;46.78;101233.22;2569351;23;20189;-62
2022/04/16 01:46:40;;;;;;;12.17;5.30;;;;;;;14.24;48.53;101230.78;2556206;23;20164;-62
2022/04/16 01:47:40;;;;;;;11.00;4.63;;;;;;;13.87;47.58;101165.31;2556316;23;20145;-62
2022/04/16 01:48:41;;;;;;;10.10;4.83;;;;;;;14.07;45.83;101202.16;2570031;23;20149;-62
2022/04/16 01:49:42;;;;;;;10.90;4.40;;;;;;;14.06;46.03;101205.38;2556960;23;20180;-62
2022/04/16 01:50:46;;;;;;;11.47;4.43;;;;;;;14.35;46.21;101239.59;2556724;23;20409;-62
2022/04/16 01:51:48;;;;;;;6.67;4.10;;;;;;;14.36;41.38;101239.16;2570073;23;20375;-63
2022/04/16 01:52:48;;;;;;;6.40;4.03;;;;;;;14.32;41.80;101232.91;2570119;23;20419;-62
2022/04/16 01:53:48;;;;;;;9.50;4.83;;;;;;;14.42;42.97;101244.97;2570384;23;20462;-62
2022/04/16 01:54:52;;;;;;;11.83;4.60;;;;;;;14.45;43.71;101238.50;2565228;23;20191;-63
2022/04/16 01:55:53;;;;;;;7.87;4.70;;;;;;;14.50;43.92;101235.19;2567985;23;20556;-62
2022/04/16 01:56:53;;;;;;;7.10;4.60;;;;;;;14.52;41.95;101239.09;2569321;23;20375;-62
2022/04/16 01:57:54;;;;;;;11.17;4.50;;;;;;;14.53;41.08;101237.06;2565086;23;20159;-63
2022/04/16 01:58:54;;;;;;;7.30;4.23;;;;;;;14.56;40.17;101236.19;2569037;23;20210;-62
2022/04/16 01:59:55;;;;;;;12.53;4.93;;;;;;;14.61;39.97;101239.19;2569070;23;20157;-62
2022/04/16 02:00:55;;;;;;;8.07;4.23;;;;;;;14.66;40.88;101232.28;2569582;23;20149;-62
2022/04/16 02:01:56;;;;;;;7.20;4.07;;;;;;;14.69;39.83;101240.53;2570184;23;20153;-63
2022/04/16 02:02:57;;;;;;;9.53;4.60;;;;;;;14.72;39.78;101244.44;2569976;23;20235;-62
2022/04/16 02:03:59;;;;;;;16.03;5.10;;;;;;;14.78;41.33;101251.81;2570011;23;20608;-62
2022/04/16 02:05:00;;;;;;;11.80;4.50;;;;;;;14.81;40.42;101244.56;2569975;23;20180;-62
2022/04/16 02:06:00;;;;;;;7.30;4.63;;;;;;;14.82;38.83;101235.75;2569604;23;20853;-62
2022/04/16 02:07:01;;;;;;;11.00;4.37;;;;;;;14.86;39.52;101241.97;2569159;23;20185;-62
2022/04/16 02:08:01;;;;;;;7.50;4.10;;;;;;;14.89;40.64;101246.69;2556305;23;20204;-62
2022/04/16 02:09:03;;;;;;;10.67;4.97;;;;;;;14.92;40.85;101245.81;2556783;23;20154;-62
2022/04/16 02:10:04;;;;;;;8.70;4.60;;;;;;;14.13;39.38;101125.13;2569686;23;20150;-62
2022/04/16 02:11:04;;;;;;;11.67;4.80;;;;;;;14.96;39.81;101246.44;2569742;23;20411;-62
2022/04/16 02:12:05;;;;;;;9.17;4.10;;;;;;;14.83;38.83;101228.16;2570007;23;20382;-62
2022/04/16 02:13:06;;;;;;;10.33;4.23;;;;;;;14.98;38.64;101249.59;2570047;23;20487;-63
2022/04/16 02:14:06;;;;;;;9.30;4.33;;;;;;;14.98;39.86;101241.22;2570196;23;20193;-62
2022/04/16 02:15:07;;;;;;;7.77;3.93;;;;;;;14.84;37.84;101224.91;2569549;23;20238;-63
2022/04/16 02:16:08;;;;;;;8.03;4.27;;;;;;;14.99;38.67;101248.34;2569983;23;20149;-62
2022/04/16 02:17:08;;;;;;;6.97;4.80;;;;;;;14.85;39.07;101217.34;2568875;23;20379;-62
2022/04/16 02:18:09;;;;;;;6.70;4.10;;;;;;;14.53;39.42;101170.91;2569535;23;20178;-62
2022/04/16 02:19:09;;;;;;;6.47;4.13;;;;;;;15.04;39.12;101247.00;2570103;23;20234;-62
2022/04/16 02:20:10;;;;;;;9.37;4.30;;;;;;;15.09;38.09;101244.44;2569651;23;20149;-62
2022/04/16 02:21:11;;;;;;;9.30;4.40;;;;;;;15.10;39.88;101245.22;2569813;23;20163;-62
2022/04/16 02:22:11;;;;;;;8.70;4.03;;;;;;;15.13;38.63;101245.13;2569958;23;20152;-62
2022/04/16 02:23:12;;;;;;;11.13;4.20;;;;;;;15.14;38.39;101254.25;2570160;23;20544;-63
2022/04/16 02:24:13;;;;;;;7.27;4.17;;;;;;;14.45;37.80;101147.25;2569908;23;20158;-63
2022/04/16 02:25:16;;;;;;;7.00;3.60;;;;;;;15.15;37.58;101247.44;2569466;23;20190;-63
2022/04/16 02:26:20;;;;;;;5.93;3.80;;;;;;;14.78;38.03;101189.66;2569984;23;20386;-63
2022/04/16 02:27:20;;;;;;;6.97;3.80;;;;;;;15.12;37.65;101246.31;2555495;23;21373;-62
2022/04/16 02:28:21;;;;;;;9.13;4.50;;;;;;;15.15;37.94;101239.84;2556637;23;20709;-62
2022/04/16 02:29:22;;;;;;;6.20;3.87;;;;;;;15.22;37.83;101248.00;2569997;23;20198;-63
2022/04/16 02:30:23;;;;;;;7.40;3.80;;;;;;;14.86;38.28;101182.63;2569555;23;20150;-63
2022/04/16 02:31:23;;;;;;;5.70;3.80;;;;;;;15.29;38.20;101252.56;2569783;23;20892;-63
2022/04/16 02:32:25;;;;;;;8.43;3.63;;;;;;;15.30;38.32;101251.31;2569878;23;20206;-62
2022/04/16 02:33:26;;;;;;;10.13;4.50;;;;;;;15.34;38.34;101252.81;2570052;23;20524;-62
2022/04/16 02:34:27;;;;;;;7.53;3.97;;;;;;;15.28;37.89;101251.81;2569712;23;20388;-63
2022/04/16 02:35:28;;;;;;;8.07;3.97;;;;;;;15.37;38.24;101254.69;2569480;23;20381;-63
2022/04/16 02:36:29;;;;;;;7.93;3.87;;;;;;;15.44;38.23;101259.28;2569557;23;20155;-62
2022/04/16 02:37:29;;;;;;;10.47;3.90;;;;;;;15.42;38.30;101264.53;2568982;23;20197;-63
2022/04/16 02:38:30;;;;;;;6.40;3.43;;;;;;;15.44;37.99;101267.66;2569486;23;20506;-62
2022/04/16 02:39:30;;;;;;;7.90;3.90;;;;;;;15.52;37.87;101263.41;2570040;23;20156;-63
2022/04/16 02:40:31;;;;;;;6.70;3.80;;;;;;;15.50;38.25;101249.88;2569489;23;20227;-62
2022/04/16 02:41:31;;;;;;;8.23;3.83;;;;;;;15.54;38.14;101256.13;2569706;23;20560;-62
2022/04/16 02:42:40;;;;;;;6.80;4.10;;;;;;;14.85;38.31;101144.78;2569859;23;20207;-62
2022/04/16 02:43:41;;;;;;;7.93;3.90;;;;;;;15.53;38.25;101254.53;2570012;23;20156;-62
2022/04/16 02:47:19;;;;;;;11.40;4.07;;;;;;;15.52;38.37;101253.00;2568477;23;20917;-62
2022/04/16 02:48:20;;;;;;;14.90;4.37;;;;;;;15.36;37.09;101222.41;2569700;23;20758;-62
2022/04/16 02:49:21;;;;;;;9.57;3.70;;;;;;;15.51;37.19;101250.63;2569824;23;20242;-62
2022/04/16 02:50:25;;;;;;;10.93;4.20;;;;;;;15.45;36.96;101235.69;2569528;23;20156;-62
2022/04/16 02:51:26;;;;;;;9.83;4.13;;;;;;;15.55;37.34;101252.09;2569611;23;20447;-62
2022/04/16 02:52:27;;;;;;;10.03;4.30;;;;;;;15.50;37.04;101258.25;2569795;23;20743;-62
2022/04/16 02:53:28;;;;;;;8.87;4.53;;;;;;;15.52;36.88;101247.41;2569912;23;20402;-62
2022/04/16 02:54:28;;;;;;;10.70;4.80;;;;;;;15.47;37.10;101242.38;2565204;23;20470;-62
2022/04/16 02:55:29;;;;;;;8.83;4.30;;;;;;;15.62;36.75;101253.88;2556196;23;20157;-62
2022/04/16 02:56:30;;;;;;;8.73;4.30;;;;;;;15.65;36.98;101252.94;2556252;23;20199;-62
2022/04/16 02:57:33;;;;;;;11.40;4.50;;;;;;;15.62;37.27;101257.44;2569108;23;20158;-62
2022/04/16 02:58:34;;;;;;;9.30;4.50;;;;;;;15.59;37.12;101258.34;2568698;23;20654;-62
2022/04/16 02:59:35;;;;;;;6.23;4.30;;;;;;;15.45;37.21;101232.91;2569362;23;21481;-62
2022/04/16 03:00:35;;;;;;;7.07;3.97;;;;;;;15.45;37.41;101236.47;2569372;23;20179;-62
2022/04/16 03:01:36;;;;;;;8.80;4.23;;;;;;;15.23;37.34;101187.34;2569735;23;20370;-62
2022/04/16 03:02:37;;;;;;;9.50;4.80;;;;;;;15.62;37.34;101267.84;2569914;23;20179;-62
2022/04/16 03:03:37;;;;;;;8.57;4.33;;;;;;;15.10;36.74;101165.06;2569987;23;20162;-62
2022/04/16 03:04:38;;;;;;;8.33;4.60;;;;;;;15.69;37.33;101254.41;2569589;23;20148;-63
2022/04/16 03:05:38;;;;;;;10.00;4.30;;;;;;;15.73;37.21;101259.88;2569408;23;20159;-63
2022/04/16 03:06:39;;;;;;;9.17;4.80;;;;;;;15.73;37.75;101265.47;2569074;23;20499;-63
2022/04/16 03:07:40;;;;;;;8.40;4.17;;;;;;;15.66;37.44;101266.47;2568907;23;20157;-63
2022/04/16 03:08:40;;;;;;;11.70;4.50;;;;;;;15.34;37.76;101210.94;2568868;23;20158;-63
2022/04/16 03:09:41;;;;;;;7.47;4.10;;;;;;;15.77;37.00;101254.94;2569743;23;20395;-62
2022/04/16 03:10:42;;;;;;;7.53;4.43;;;;;;;15.80;36.96;101259.63;2568706;23;20227;-63
2022/04/16 03:11:43;;;;;;;13.03;4.70;;;;;;;15.77;36.89;101244.53;2569509;23;20163;-63
2022/04/16 03:12:51;;;;;;;10.53;4.53;;;;;;;15.83;36.72;101253.13;2569686;23;20422;-62
2022/04/16 03:13:51;;;;;;;10.97;5.03;;;;;;;15.77;36.96;101238.19;2569906;23;20231;-62
2022/04/16 03:17:33;;;;;;;7.23;4.27;;;;;;;15.90;36.69;101242.47;2569257;23;20359;-63
2022/04/16 03:18:33;;;;;;;8.43;4.20;;;;;;;16.02;36.74;101246.44;2569419;23;20789;-62
2022/04/16 03:19:35;;;;;;;9.37;4.23;;;;;;;15.77;37.03;101213.03;2569591;23;20395;-62
2022/04/16 03:20:37;;;;;;;6.93;4.20;;;;;;;16.00;37.33;101246.91;2569264;23;20148;-63
2022/04/16 03:21:37;;;;;;;8.30;4.10;;;;;;;16.00;37.24;101248.91;2569678;23;20375;-63
2022/04/16 03:22:38;;;;;;;8.67;4.27;;;;;;;16.01;37.22;101251.25;2556622;23;20447;-62
2022/04/16 03:23:39;;;;;;;7.80;4.20;;;;;;;15.49;37.66;101166.53;2556818;23;20155;-63
2022/04/16 03:24:40;;;;;;;8.63;4.30;;;;;;;15.94;37.44;101240.31;2569626;23;20163;-63
2022/04/16 03:25:41;;;;;;;7.87;3.83;;;;;;;16.10;37.55;101254.13;2569420;23;20425;-63
2022/04/16 03:26:42;;;;;;;7.90;4.30;;;;;;;15.96;37.57;101234.28;2569155;23;20497;-63
2022/04/16 03:27:43;;;;;;;9.57;4.40;;;;;;;16.06;37.44;101252.69;2568810;23;20718;-63
2022/04/16 03:28:44;;;;;;;10.63;4.47;;;;;;;16.04;37.80;101263.53;2569682;23;20371;-62
2022/04/16 03:29:44;;;;;;;8.53;4.03;;;;;;;16.07;37.73;101257.81;2569781;23;20622;-63
2022/04/16 03:30:45;;;;;;;6.50;4.10;;;;;;;16.11;37.57;101261.28;2569252;23;20153;-62
2022/04/16 03:31:46;;;;;;;8.00;4.17;;;;;;;16.03;37.82;101250.81;2569719;23;20499;-62
2022/04/16 03:32:50;;;;;;;9.40;4.23;;;;;;;15.85;37.97;101217.13;2569619;23;20375;-63
2022/04/16 03:33:51;;;;;;;8.73;4.60;;;;;;;16.07;37.96;101248.66;2569689;23;20159;-62
2022/04/16 03:34:52;;;;;;;7.63;4.20;;;;;;;16.20;37.17;101275.34;2569578;23;20723;-62
2022/04/16 03:35:52;;;;;;;8.83;3.67;;;;;;;16.11;37.54;101252.88;2569187;23;20382;-62
2022/04/16 03:36:53;;;;;;;8.27;4.50;;;;;;;16.23;37.73;101276.41;2569198;23;20174;-62
2022/04/16 03:37:54;;;;;;;8.73;4.37;;;;;;;16.23;37.58;101279.22;2568970;23;20544;-63
2022/04/16 03:38:55;;;;;;;7.43;3.90;;;;;;;16.17;37.37;101276.22;2569217;23;20234;-63
2022/04/16 03:39:55;;;;;;;8.17;4.20;;;;;;;16.20;37.43;101280.13;2569137;23;20380;-62
2022/04/16 03:40:56;;;;;;;11.23;4.03;;;;;;;16.28;37.39;101278.63;2569445;23;20159;-63
2022/04/16 03:41:56;;;;;;;6.93;4.27;;;;;;;16.25;37.48;101276.75;2569738;23;20156;-62
2022/04/16 03:42:59;;;;;;;10.83;4.23;;;;;;;16.21;37.56;101284.50;2569635;23;20156;-62
2022/04/16 03:44:00;;;;;;;9.60;4.13;;;;;;;16.17;37.85;101281.03;2569961;23;20509;-63
2022/04/16 03:45:01;;;;;;;10.57;4.30;;;;;;;16.19;38.05;101290.53;2569699;23;20420;-63
2022/04/16 03:46:01;;;;;;;7.70;4.20;;;;;;;16.20;37.53;101282.94;2569106;23;20595;-62
2022/04/16 03:47:02;;;;;;;11.87;4.37;;;;;;;16.21;37.40;101290.88;2569135;23;20387;-63
2022/04/16 03:48:05;;;;;;;10.13;4.20;;;;;;;16.24;37.13;101289.19;2569281;23;20153;-63
2022/04/16 03:49:05;;;;;;;7.53;4.10;;;;;;;16.14;37.35;101291.09;2569383;23;20155;-62
2022/04/16 03:50:07;;;;;;;10.33;4.53;;;;;;;16.20;37.20;101288.53;2569029;23;20474;-63
2022/04/16 03:51:09;;;;;;;19.13;4.70;;;;;;;16.17;37.20;101297.81;2569529;23;20570;-63
2022/04/16 03:52:09;;;;;;;9.90;4.20;;;;;;;16.16;37.23;101293.47;2569748;23;20897;-62
2022/04/16 03:53:10;;;;;;;8.13;4.10;;;;;;;16.18;37.12;101288.22;2569779;23;20728;-62
2022/04/16 04:00:52;;;;;;;8.30;4.23;;;;;;;16.26;37.29;101311.88;2570185;23;20397;-63
2022/04/16 04:01:53;;;;;;;8.70;4.17;;;;;;;16.24;37.26;101303.16;2570541;23;20387;-62
2022/04/16 04:02:53;;;;;;;13.07;4.40;;;;;;;16.24;37.07;101308.75;2570444;23;20383;-62
2022/04/16 04:03:54;;;;;;;6.67;4.03;;;;;;;16.19;37.38;101303.75;2570465;23;20903;-63
2022/04/16 04:04:56;;;;;;;10.10;4.20;;;;;;;16.23;37.33;101304.38;2570084;23;20202;-63
2022/04/16 04:05:58;;;;;;;10.60;4.33;;;;;;;16.22;37.42;101306.41;2569955;23;20379;-63
2022/04/16 04:06:59;;;;;;;12.17;5.03;;;;;;;16.19;37.50;101310.09;2556616;23;20486;-62
2022/04/16 04:07:59;;;;;;;13.33;5.10;;;;;;;15.66;37.39;101227.38;2551829;23;20392;-62
2022/04/16 04:09:00;;;;;;;10.63;5.37;;;;;;;16.21;37.14;101309.66;2569583;23;20584;-62
2022/04/16 04:10:01;;;;;;;8.13;4.30;;;;;;;16.21;37.39;101316.03;2569273;23;20159;-63
2022/04/16 04:11:02;;;;;;;13.37;4.80;;;;;;;16.24;37.45;101312.31;2570092;23;20272;-63
2022/04/16 04:12:02;;;;;;;14.97;4.73;;;;;;;16.20;37.62;101311.69;2570560;23;20380;-63
2022/04/16 04:13:04;;;;;;;11.13;4.30;;;;;;;16.24;37.67;101334.69;2570418;23;20394;-62
2022/04/16 04:14:04;;;;;;;9.47;4.50;;;;;;;16.18;37.65;101308.53;2570643;23;20156;-62
2022/04/16 04:15:05;;;;;;;10.13;4.43;;;;;;;16.23;37.12;101323.94;2570084;23;20872;-62
2022/04/16 04:16:06;;;;;;;7.00;4.13;;;;;;;16.24;37.30;101319.94;2570411;23;20161;-62
2022/04/16 04:17:08;;;;;;;10.17;4.40;;;;;;;16.19;37.54;101314.94;2569260;23;20391;-63
2022/04/16 04:18:09;;;;;;;10.70;4.33;;;;;;;16.21;37.84;101313.25;2569870;23;20231;-62
2022/04/16 04:19:10;;;;;;;9.00;3.93;;;;;;;16.27;37.57;101325.41;2569976;23;21028;-63
2022/04/16 04:20:10;;;;;;;9.70;4.30;;;;;;;16.26;37.73;101326.66;2569909;23;20781;-63
2022/04/16 04:21:11;;;;;;;13.30;4.33;;;;;;;16.34;37.57;101322.34;2570281;23;20152;-62
2022/04/16 04:22:14;;;;;;;7.80;4.57;;;;;;;16.34;37.33;101327.94;2570414;23;20156;-63
2022/04/16 04:23:17;;;;;;;7.00;4.20;;;;;;;16.33;37.80;101328.38;2570443;23;20156;-63
2022/04/16 04:24:17;;;;;;;10.00;4.97;;;;;;;16.04;38.05;101283.13;2570442;23;20379;-63
2022/04/16 04:25:18;;;;;;;8.93;4.67;;;;;;;16.34;38.52;101330.72;2569804;23;20425;-63
2022/04/16 04:26:18;;;;;;;7.50;4.37;;;;;;;16.29;38.18;101327.75;2570449;23;20583;-63
2022/04/16 04:27:19;;;;;;;9.27;4.30;;;;;;;16.23;38.28;101313.56;2569588;23;20193;-63
2022/04/16 04:28:19;;;;;;;7.90;4.03;;;;;;;16.23;38.33;101326.75;2570435;23;20623;-63
2022/04/16 04:29:20;;;;;;;5.47;4.00;;;;;;;16.09;38.45;101313.28;2570099;23;20238;-63
2022/04/16 04:30:21;;;;;;;7.87;4.23;;;;;;;16.06;38.16;101303.78;2569952;23;20671;-62
2022/04/16 04:31:21;;;;;;;7.83;4.20;;;;;;;16.21;37.97;101330.03;2570184;23;20593;-62
2022/04/16 04:32:22;;;;;;;8.13;3.97;;;;;;;16.21;38.43;101337.63;2570286;23;20177;-63
2022/04/16 04:33:22;;;;;;;8.93;4.50;;;;;;;16.22;38.49;101339.19;2570502;23;20187;-62
2022/04/16 04:34:23;;;;;;;9.87;4.30;;;;;;;15.91;38.83;101283.16;2570344;23;20749;-62
2022/04/16 04:35:24;;;;;;;11.27;4.50;;;;;;;16.20;38.82;101341.66;2569379;23;20148;-62
2022/04/16 04:36:25;;;;;;;10.47;4.10;;;;;;;15.88;38.61;101286.84;2570091;23;20950;-62
2022/04/16 04:37:25;;;;;;;9.17;4.10;;;;;;;15.95;38.38;101313.78;2569908;23;20183;-62
2022/04/16 04:38:26;;;;;;;9.77;4.27;;;;;;;16.26;38.49;101342.63;2570201;23;20162;-63
2022/04/16 04:39:27;;;;;;;8.37;4.30;;;;;;;16.25;38.86;101341.84;2570304;23;20178;-62
2022/04/16 04:40:29;;;;;;;10.77;4.97;;;;;;;16.27;38.67;101344.97;2569408;23;20175;-63
2022/04/16 04:41:29;;;;;;;8.30;4.43;;;;;;;16.21;38.64;101349.59;2570268;23;20231;-62
2022/04/16 04:42:32;;;;;;;8.07;4.60;;;;;;;16.07;38.87;101318.53;2570289;23;20398;-63
2022/04/16 04:43:33;;;;;;;10.00;4.37;;;;;;;16.26;38.71;101360.22;2570517;23;20155;-62
2022/04/16 04:44:34;;;;;;;11.23;4.53;;;;;;;16.28;38.89;101356.94;2570151;23;20690;-62
2022/04/16 04:45:34;;;;;;;9.67;4.80;;;;;;;15.95;39.12;101320.16;2569752;23;20381;-62
2022/04/16 04:46:35;;;;;;;9.80;4.60;;;;;;;16.15;39.11;101345.03;2569823;23;20617;-62
2022/04/16 04:47:36;;;;;;;9.63;4.33;;;;;;;16.21;39.15;101358.00;2569894;23;20234;-62
2022/04/16 04:48:36;;;;;;;7.20;4.07;;;;;;;16.19;39.06;101368.06;2570273;23;20145;-63
2022/04/16 04:49:37;;;;;;;8.53;4.40;;;;;;;16.17;39.41;101370.50;2570554;23;20149;-62
2022/04/16 04:50:37;;;;;;;10.07;4.20;;;;;;;16.19;39.45;101360.44;2569166;23;20159;-62
2022/04/16 04:51:41;;;;;;;8.53;4.83;;;;;;;15.62;39.39;101259.47;2570209;23;20437;-63
2022/04/16 04:52:42;;;;;;;10.53;4.23;;;;;;;16.23;39.67;101360.31;2570180;23;20149;-62
2022/04/16 04:53:43;;;;;;;8.37;4.27;;;;;;;16.29;39.53;101359.28;2570473;23;20456;-63
2022/04/16 04:54:43;;;;;;;11.13;4.50;;;;;;;16.31;39.61;101362.44;2570343;23;20575;-63